Time;durP1;ratioP1;P1;durP2;ratioP2;P2;SDS_P1;SDS_P2;PMS_P1;PMS_P2;Temp;Humidity;BMP_temperature;BMP_pressure;BME280_temperature;BME280_humidity;BME280_pressure;Samples;Min_cycle;Max_cycle;Signal;HPM_P1;HPM_P2
2023/02/06 00:00:35;;;;;;;13.50;11.10;;;6.90;99.90;;;;;;5070806;28;20429;-67
2023/02/06 00:03:01;;;;;;;13.20;11.37;;;6.90;99.90;;;;;;5064998;28;20810;-67
2023/02/06 00:05:26;;;;;;;15.73;13.00;;;6.90;99.90;;;;;;5053876;28;20462;-67
2023/02/06 00:07:52;;;;;;;15.30;12.10;;;6.90;99.90;;;;;;5072825;28;20214;-66
2023/02/06 00:10:18;;;;;;;16.10;12.83;;;6.90;99.90;;;;;;5074227;28;20577;-67
2023/02/06 00:12:43;;;;;;;14.90;11.63;;;6.90;99.90;;;;;;5076453;28;20235;-66
2023/02/06 00:15:09;;;;;;;14.87;11.50;;;6.80;99.90;;;;;;5067555;28;20273;-67
2023/02/06 00:17:35;;;;;;;14.07;11.23;;;6.90;99.90;;;;;;5069543;28;20207;-68
2023/02/06 00:20:03;;;;;;;14.27;11.70;;;6.80;99.90;;;;;;5071368;28;20222;-68
2023/02/06 00:22:28;;;;;;;14.53;11.97;;;6.90;99.90;;;;;;5071157;28;20444;-68
2023/02/06 00:24:54;;;;;;;15.10;12.70;;;6.90;99.90;;;;;;5072551;28;20489;-67
2023/02/06 00:27:19;;;;;;;15.73;12.97;;;6.90;99.90;;;;;;5072164;28;20255;-68
2023/02/06 00:29:45;;;;;;;16.87;12.87;;;6.80;99.90;;;;;;5077174;28;20317;-69
2023/02/06 00:32:10;;;;;;;16.27;12.37;;;6.80;99.90;;;;;;5069574;28;20186;-68
2023/02/06 00:34:36;;;;;;;14.23;12.40;;;6.80;99.90;;;;;;5075934;28;20187;-68
2023/02/06 00:37:01;;;;;;;16.10;12.40;;;6.80;99.90;;;;;;5073049;28;20553;-68
2023/02/06 00:39:27;;;;;;;17.33;13.23;;;6.70;99.90;;;;;;5074770;28;20199;-69
2023/02/06 00:41:54;;;;;;;15.60;12.60;;;6.80;99.90;;;;;;5077332;28;20190;-68
2023/02/06 00:44:20;;;;;;;18.90;13.30;;;6.70;99.90;;;;;;5074909;28;20198;-68
2023/02/06 00:46:46;;;;;;;17.50;12.10;;;6.70;99.90;;;;;;5071830;28;20567;-67
2023/02/06 00:49:11;;;;;;;14.93;12.13;;;6.70;99.90;;;;;;5077522;28;20550;-68
2023/02/06 00:51:38;;;;;;;15.23;12.80;;;6.70;99.90;;;;;;5071301;28;20252;-68
2023/02/06 00:54:05;;;;;;;13.80;11.60;;;6.80;99.90;;;;;;5076583;28;20222;-67
2023/02/06 00:56:30;;;;;;;17.20;13.30;;;6.70;99.90;;;;;;5075002;28;20463;-68
2023/02/06 00:58:56;;;;;;;15.40;11.87;;;6.70;99.90;;;;;;5067716;28;20441;-68
2023/02/06 01:01:21;;;;;;;19.33;13.20;;;6.70;99.90;;;;;;5069581;28;20717;-68
2023/02/06 01:03:47;;;;;;;16.53;12.40;;;6.70;99.90;;;;;;5071462;28;20230;-68
2023/02/06 01:06:12;;;;;;;17.30;13.70;;;6.70;99.90;;;;;;5071465;28;20718;-68
2023/02/06 01:08:38;;;;;;;17.33;13.73;;;6.70;99.90;;;;;;5056391;28;20211;-67
2023/02/06 01:11:12;;;;;;;16.63;13.50;;;6.60;99.90;;;;;;5056684;28;20271;-67
2023/02/06 01:13:38;;;;;;;19.17;14.63;;;6.50;99.90;;;;;;5075539;28;20200;-67
2023/02/06 01:16:07;;;;;;;17.47;13.20;;;6.50;99.90;;;;;;5074872;28;20777;-68
2023/02/06 01:18:33;;;;;;;18.33;13.37;;;6.50;99.90;;;;;;5075689;28;20530;-68
2023/02/06 01:20:58;;;;;;;18.10;13.97;;;6.50;99.90;;;;;;5073277;28;20498;-67
2023/02/06 01:23:24;;;;;;;19.57;15.63;;;6.50;99.90;;;;;;5075791;28;20190;-68
2023/02/06 01:25:50;;;;;;;20.60;13.40;;;6.50;99.90;;;;;;5075425;28;20195;-68
2023/02/06 01:28:16;;;;;;;19.43;14.63;;;6.40;99.90;;;;;;5075316;28;20515;-68
2023/02/06 01:30:42;;;;;;;18.80;13.77;;;6.40;99.90;;;;;;5073289;28;20772;-68
2023/02/06 01:33:07;;;;;;;19.13;14.80;;;6.40;99.90;;;;;;5075056;28;20186;-68
2023/02/06 01:35:33;;;;;;;18.67;14.07;;;6.40;99.90;;;;;;5073233;28;20227;-68
2023/02/06 01:37:59;;;;;;;18.97;13.53;;;6.40;99.90;;;;;;5073798;28;20374;-68
2023/02/06 01:40:24;;;;;;;19.37;15.50;;;6.40;99.90;;;;;;5074942;28;20535;-68
2023/02/06 01:42:50;;;;;;;19.07;13.80;;;6.30;99.90;;;;;;5079346;28;20193;-68
2023/02/06 01:45:33;;;;;;;21.80;14.37;;;6.30;99.90;;;;;;5073194;28;20210;-68
2023/02/06 01:48:12;;;;;;;18.63;14.20;;;6.30;99.90;;;;;;5071011;28;20292;-68
2023/02/06 01:50:40;;;;;;;18.23;13.90;;;6.30;99.90;;;;;;5074220;28;20523;-68
2023/02/06 01:53:06;;;;;;;21.70;15.03;;;6.30;99.90;;;;;;5074704;28;20437;-68
2023/02/06 01:55:34;;;;;;;19.00;14.87;;;6.30;99.90;;;;;;5073593;28;20464;-67
2023/02/06 01:58:01;;;;;;;19.97;15.20;;;6.30;99.90;;;;;;5072290;28;20447;-67
2023/02/06 02:00:26;;;;;;;17.80;14.43;;;6.30;99.90;;;;;;5069261;28;20527;-67
2023/02/06 02:02:52;;;;;;;20.80;14.87;;;6.30;99.90;;;;;;5062003;28;20527;-68
2023/02/06 02:05:18;;;;;;;19.60;14.13;;;6.30;99.90;;;;;;5076087;28;20201;-68
2023/02/06 02:07:51;;;;;;;18.67;13.77;;;6.30;99.90;;;;;;5056245;28;20365;-67
2023/02/06 02:10:17;;;;;;;22.37;15.70;;;6.30;99.90;;;;;;5078458;28;20440;-68
2023/02/06 02:12:42;;;;;;;20.00;14.93;;;6.30;99.90;;;;;;5068723;28;21461;-68
2023/02/06 02:15:08;;;;;;;20.40;14.83;;;6.40;99.90;;;;;;5070292;28;20185;-68
2023/02/06 02:17:57;;;;;;;19.70;14.10;;;6.40;99.90;;;;;;5071285;28;20828;-68
2023/02/06 02:20:58;;;;;;;20.87;15.90;;;6.30;99.90;;;;;;5033561;28;20209;-67
2023/02/06 02:23:52;;;;;;;21.93;16.20;;;6.30;99.90;;;;;;5072615;28;20873;-67
2023/02/06 02:27:07;;;;;;;22.27;15.70;;;6.30;99.90;;;;;;5071154;28;21159;-67
2023/02/06 02:30:15;;;;;;;22.73;15.90;;;6.40;99.90;;;;;;4982606;28;20474;-67
2023/02/06 02:32:56;;;;;;;21.67;15.27;;;6.40;99.90;;;;;;5074423;28;20448;-69
2023/02/06 02:35:58;;;;;;;22.33;15.50;;;6.30;99.90;;;;;;5072411;28;20432;-69
2023/02/06 02:38:39;;;;;;;22.90;16.87;;;6.30;99.90;;;;;;5073219;28;20440;-69
2023/02/06 02:41:57;;;;;;;22.10;16.77;;;6.30;99.90;;;;;;5063634;28;20783;-69
2023/02/06 02:44:46;;;;;;;22.73;16.23;;;6.40;99.90;;;;;;5023338;28;20813;-69
2023/02/06 02:47:14;;;;;;;27.83;18.90;;;6.30;99.90;;;;;;5072874;28;20470;-68
2023/02/06 02:49:43;;;;;;;28.23;17.90;;;6.40;99.90;;;;;;5069275;28;20472;-69
2023/02/06 02:52:08;;;;;;;24.57;17.43;;;6.30;99.90;;;;;;5072698;28;20496;-68
2023/02/06 02:54:34;;;;;;;28.03;17.50;;;6.30;99.90;;;;;;5074404;28;20937;-68
2023/02/06 02:57:08;;;;;;;27.50;18.90;;;6.30;99.90;;;;;;5072316;28;20206;-68
2023/02/06 02:59:37;;;;;;;30.30;19.13;;;6.30;99.90;;;;;;5072157;28;20557;-69
2023/02/06 03:02:13;;;;;;;28.93;17.87;;;6.40;99.90;;;;;;5061336;28;20433;-69
2023/02/06 03:04:45;;;;;;;26.20;18.47;;;6.40;99.90;;;;;;5071021;28;20926;-68
2023/02/06 03:07:29;;;;;;;26.53;18.77;;;6.40;99.90;;;;;;5070403;28;20476;-68
2023/02/06 03:10:00;;;;;;;27.37;18.27;;;6.40;99.90;;;;;;5072755;28;20472;-68
2023/02/06 03:12:50;;;;;;;26.20;18.20;;;6.40;99.90;;;;;;5075333;28;20428;-68
2023/02/06 03:15:38;;;;;;;25.03;17.60;;;6.30;99.90;;;;;;5057222;28;20499;-68
2023/02/06 03:18:29;;;;;;;25.23;18.57;;;6.30;99.90;;;;;;5069012;28;20440;-68
2023/02/06 03:20:57;;;;;;;22.50;17.17;;;6.40;99.90;;;;;;5054549;28;20440;-68
2023/02/06 03:23:30;;;;;;;27.70;17.37;;;6.40;99.90;;;;;;5077380;28;20440;-68
2023/02/06 03:26:00;;;;;;;28.70;18.33;;;6.40;99.90;;;;;;5071116;28;20460;-68
2023/02/06 03:28:32;;;;;;;23.00;17.80;;;6.40;99.90;;;;;;5075517;28;21010;-68
2023/02/06 03:31:01;;;;;;;25.80;18.27;;;6.40;99.90;;;;;;5071841;28;20441;-68
2023/02/06 03:33:32;;;;;;;31.87;19.50;;;6.40;99.90;;;;;;5074208;28;20428;-68
2023/02/06 03:35:59;;;;;;;25.00;17.23;;;6.30;99.90;;;;;;5070621;28;20455;-68
2023/02/06 03:38:26;;;;;;;24.13;17.57;;;6.30;99.90;;;;;;5074789;28;20444;-68
2023/02/06 03:40:53;;;;;;;25.60;18.23;;;6.30;99.90;;;;;;5071046;28;21027;-69
2023/02/06 03:43:22;;;;;;;28.83;19.67;;;6.40;99.90;;;;;;5068941;28;20865;-67
2023/02/06 03:45:52;;;;;;;30.97;19.47;;;6.40;99.90;;;;;;5069978;28;20537;-68
2023/02/06 03:48:26;;;;;;;25.20;18.07;;;6.40;99.90;;;;;;5072943;28;20464;-68
2023/02/06 03:50:55;;;;;;;27.20;19.13;;;6.30;99.90;;;;;;5067883;28;20486;-68
2023/02/06 03:53:22;;;;;;;27.03;19.10;;;6.40;99.90;;;;;;5071701;28;20440;-67
2023/02/06 03:55:53;;;;;;;27.33;18.83;;;6.40;99.90;;;;;;5071679;28;20444;-68
2023/02/06 03:58:18;;;;;;;29.23;19.60;;;6.40;99.90;;;;;;5073965;28;20440;-67
2023/02/06 04:00:45;;;;;;;27.37;18.53;;;6.30;99.90;;;;;;5050511;28;22208;-67
2023/02/06 04:03:11;;;;;;;29.33;20.23;;;6.30;99.90;;;;;;5067758;28;20186;-67
2023/02/06 04:05:37;;;;;;;27.03;19.80;;;6.40;99.90;;;;;;5071476;28;20828;-67
2023/02/06 04:08:03;;;;;;;26.80;19.60;;;6.40;99.90;;;;;;5077426;28;20452;-67
2023/02/06 04:10:28;;;;;;;23.87;19.43;;;6.40;99.90;;;;;;5078940;28;20191;-67
2023/02/06 04:12:54;;;;;;;26.03;18.63;;;6.40;99.90;;;;;;5076633;28;20599;-67
2023/02/06 04:15:20;;;;;;;27.83;18.27;;;6.40;99.90;;;;;;5074270;28;20615;-67
2023/02/06 04:17:46;;;;;;;29.23;20.00;;;6.40;99.90;;;;;;5058542;28;20205;-67
2023/02/06 04:20:12;;;;;;;26.70;19.03;;;6.30;99.90;;;;;;5077373;28;20421;-67
2023/02/06 04:22:38;;;;;;;29.50;20.10;;;6.40;99.90;;;;;;5075680;28;20182;-67
2023/02/06 04:25:04;;;;;;;29.50;20.57;;;6.40;99.90;;;;;;5075024;28;20454;-67
2023/02/06 04:27:29;;;;;;;24.60;18.63;;;6.30;99.90;;;;;;5073977;28;20972;-67
2023/02/06 04:29:55;;;;;;;29.17;19.20;;;6.30;99.90;;;;;;5074378;28;20238;-67
2023/02/06 04:32:21;;;;;;;25.00;19.10;;;6.30;99.90;;;;;;5073574;28;20792;-67
2023/02/06 04:34:46;;;;;;;26.47;17.97;;;6.30;99.90;;;;;;5076445;28;20193;-67
2023/02/06 04:37:12;;;;;;;29.03;20.20;;;6.30;99.90;;;;;;5041826;28;20186;-67
2023/02/06 04:39:38;;;;;;;28.60;18.77;;;6.30;99.90;;;;;;5075254;28;20179;-67
2023/02/06 04:42:04;;;;;;;27.47;20.03;;;6.30;99.90;;;;;;5059071;28;20436;-67
2023/02/06 04:44:31;;;;;;;23.87;17.03;;;6.30;99.90;;;;;;5076339;28;20181;-68
2023/02/06 04:46:56;;;;;;;25.13;18.23;;;6.30;99.90;;;;;;5052273;28;20559;-67
2023/02/06 04:49:22;;;;;;;23.43;16.83;;;6.30;99.90;;;;;;5077848;28;20468;-68
2023/02/06 04:51:48;;;;;;;27.57;18.50;;;6.30;99.90;;;;;;5072141;28;20182;-68
2023/02/06 04:54:16;;;;;;;24.73;18.50;;;6.30;99.90;;;;;;5075520;28;20187;-68
2023/02/06 04:56:42;;;;;;;24.77;17.73;;;6.30;99.90;;;;;;5075427;28;20198;-68
2023/02/06 04:59:07;;;;;;;25.90;18.67;;;6.20;99.90;;;;;;5074939;28;20950;-68
2023/02/06 05:01:33;;;;;;;21.87;16.80;;;6.20;99.90;;;;;;5067928;28;20445;-68
2023/02/06 05:03:58;;;;;;;23.63;17.50;;;6.20;99.90;;;;;;5071133;28;20245;-68
2023/02/06 05:06:24;;;;;;;24.77;17.03;;;6.20;99.90;;;;;;5075435;28;20271;-68
2023/02/06 05:08:50;;;;;;;25.93;18.07;;;6.30;99.90;;;;;;5071787;28;20576;-67
2023/02/06 05:11:15;;;;;;;28.90;17.03;;;6.20;99.90;;;;;;5073223;28;20263;-67
2023/02/06 05:13:41;;;;;;;22.87;16.20;;;6.30;99.90;;;;;;5074651;28;20185;-67
2023/02/06 05:16:13;;;;;;;31.70;19.10;;;6.30;99.90;;;;;;5073936;28;20616;-67
2023/02/06 05:18:40;;;;;;;23.93;17.17;;;6.30;99.90;;;;;;5076047;28;20598;-67
2023/02/06 05:21:06;;;;;;;28.30;17.63;;;6.20;99.90;;;;;;5077138;28;20796;-67
2023/02/06 05:23:32;;;;;;;23.23;17.20;;;6.20;99.90;;;;;;5078871;28;20521;-67
2023/02/06 05:25:59;;;;;;;21.87;16.87;;;6.30;99.90;;;;;;5076995;28;20906;-67
2023/02/06 05:28:26;;;;;;;24.30;17.27;;;6.20;99.90;;;;;;5077750;28;20202;-67
2023/02/06 05:30:51;;;;;;;28.50;18.63;;;6.20;99.90;;;;;;5056182;28;20441;-67
2023/02/06 05:33:18;;;;;;;26.50;17.57;;;6.20;99.90;;;;;;5079886;28;20440;-67
2023/02/06 05:35:44;;;;;;;25.03;17.23;;;6.20;99.90;;;;;;5076708;28;20189;-67
2023/02/06 05:38:09;;;;;;;24.60;16.53;;;6.20;99.90;;;;;;5076047;28;21076;-67
2023/02/06 05:40:35;;;;;;;23.27;16.53;;;6.20;99.90;;;;;;5073060;28;20179;-67
2023/02/06 05:43:00;;;;;;;23.17;16.73;;;6.20;99.90;;;;;;5075478;28;20261;-67
2023/02/06 05:45:26;;;;;;;24.00;15.97;;;6.20;99.90;;;;;;5076569;28;20312;-67
2023/02/06 05:47:53;;;;;;;24.60;17.23;;;6.20;99.90;;;;;;5069250;28;20502;-67
2023/02/06 05:50:19;;;;;;;29.83;17.00;;;6.20;99.90;;;;;;5077187;28;20182;-67
2023/02/06 05:52:44;;;;;;;26.07;17.97;;;6.20;99.90;;;;;;5075132;28;20432;-67
2023/02/06 05:55:10;;;;;;;25.20;16.87;;;6.20;99.90;;;;;;5076981;28;20433;-67
2023/02/06 05:57:36;;;;;;;24.30;16.87;;;6.20;99.90;;;;;;5072984;28;21175;-67
2023/02/06 06:00:04;;;;;;;25.00;16.57;;;6.20;99.90;;;;;;5074786;28;20435;-67
2023/02/06 06:02:30;;;;;;;26.10;17.07;;;6.20;99.90;;;;;;5062417;28;20184;-67
2023/02/06 06:04:55;;;;;;;24.17;17.87;;;6.20;99.90;;;;;;5074804;28;20432;-67
2023/02/06 06:07:21;;;;;;;22.30;17.17;;;6.20;99.90;;;;;;5074851;28;20210;-67
2023/02/06 06:09:46;;;;;;;22.10;16.83;;;6.20;99.90;;;;;;5074487;28;20236;-67
2023/02/06 06:12:12;;;;;;;23.00;15.40;;;6.20;99.90;;;;;;5074116;28;20265;-68
2023/02/06 06:14:37;;;;;;;25.87;17.70;;;6.20;99.90;;;;;;5071570;28;20178;-66
2023/02/06 06:17:03;;;;;;;21.60;15.70;;;6.20;99.90;;;;;;5070786;28;20236;-68
2023/02/06 06:19:29;;;;;;;23.30;16.67;;;6.20;99.90;;;;;;5074046;28;20678;-67
2023/02/06 06:21:54;;;;;;;23.03;16.77;;;6.20;99.90;;;;;;5074007;28;20178;-68
2023/02/06 06:24:20;;;;;;;21.20;15.17;;;6.20;99.90;;;;;;5075854;28;20254;-68
2023/02/06 06:26:45;;;;;;;21.20;16.50;;;6.20;99.90;;;;;;5073285;28;20242;-68
2023/02/06 06:29:11;;;;;;;28.70;18.10;;;6.20;99.90;;;;;;5072407;28;20237;-68
2023/02/06 06:31:37;;;;;;;28.67;18.00;;;6.20;99.90;;;;;;5072190;28;20183;-67
2023/02/06 06:34:02;;;;;;;27.93;18.47;;;6.10;99.90;;;;;;5055540;28;20183;-70
2023/02/06 06:36:28;;;;;;;22.83;16.53;;;6.10;99.90;;;;;;5068502;28;20209;-67
2023/02/06 06:38:53;;;;;;;24.57;16.97;;;6.10;99.90;;;;;;5069269;28;20186;-69
2023/02/06 06:41:19;;;;;;;26.20;16.70;;;6.10;99.90;;;;;;5068846;28;20186;-68
2023/02/06 06:43:44;;;;;;;26.43;18.17;;;6.00;99.90;;;;;;5068541;28;20187;-68
2023/02/06 06:46:10;;;;;;;29.67;19.10;;;6.10;99.90;;;;;;5069849;28;20317;-68
2023/02/06 06:48:37;;;;;;;24.27;17.23;;;6.00;99.90;;;;;;5076000;28;20203;-68
2023/02/06 06:51:03;;;;;;;25.27;16.60;;;6.10;99.90;;;;;;5072067;28;20199;-68
2023/02/06 06:53:29;;;;;;;25.27;17.03;;;6.10;99.90;;;;;;5057237;28;20441;-69
2023/02/06 06:55:54;;;;;;;24.07;17.80;;;6.00;99.90;;;;;;5068255;28;20529;-68
2023/02/06 06:58:20;;;;;;;29.97;18.47;;;6.00;99.90;;;;;;5070867;28;20229;-69
2023/02/06 07:00:46;;;;;;;24.60;18.57;;;6.00;99.90;;;;;;5070116;28;20183;-68
2023/02/06 07:03:11;;;;;;;24.77;16.80;;;6.00;99.90;;;;;;5066109;28;20697;-68
2023/02/06 07:05:37;;;;;;;26.73;17.33;;;6.00;99.90;;;;;;5049670;28;20199;-68
2023/02/06 07:08:03;;;;;;;30.00;15.80;;;6.00;99.90;;;;;;5070187;28;20181;-69
2023/02/06 07:10:29;;;;;;;24.97;17.83;;;6.00;99.90;;;;;;5048541;28;20479;-69
2023/02/06 07:12:55;;;;;;;28.23;18.40;;;6.00;99.90;;;;;;5067738;28;20535;-69
2023/02/06 07:15:22;;;;;;;23.80;17.60;;;6.00;99.90;;;;;;5071262;28;20179;-69
2023/02/06 07:17:47;;;;;;;28.03;18.63;;;6.00;99.90;;;;;;5064693;28;20496;-69
2023/02/06 07:20:13;;;;;;;27.00;17.67;;;6.10;99.90;;;;;;5067757;28;20440;-69
2023/02/06 07:22:39;;;;;;;26.93;17.57;;;6.10;99.90;;;;;;5069545;28;20189;-69
2023/02/06 07:25:05;;;;;;;28.37;17.23;;;6.10;99.90;;;;;;5065952;28;20528;-69
2023/02/06 07:27:30;;;;;;;26.37;16.77;;;6.10;99.90;;;;;;5070737;28;20454;-69
2023/02/06 07:29:56;;;;;;;27.27;18.07;;;6.10;99.90;;;;;;5071933;28;20468;-69
2023/02/06 07:32:22;;;;;;;24.77;17.80;;;6.10;99.90;;;;;;5066783;28;20243;-69
2023/02/06 07:34:47;;;;;;;28.07;18.20;;;6.10;99.90;;;;;;5068639;28;20195;-71
2023/02/06 07:37:13;;;;;;;29.90;18.27;;;6.10;99.90;;;;;;5065663;28;20977;-70
2023/02/06 07:39:38;;;;;;;27.80;17.83;;;6.10;99.90;;;;;;5054119;28;20194;-71
2023/02/06 07:42:04;;;;;;;26.80;18.40;;;6.10;99.90;;;;;;5055887;28;20194;-71
2023/02/06 07:44:29;;;;;;;23.13;17.40;;;6.10;99.90;;;;;;5076633;28;20191;-71
2023/02/06 07:46:56;;;;;;;25.93;17.77;;;6.10;99.90;;;;;;5075513;28;20592;-71
2023/02/06 07:49:21;;;;;;;29.17;18.97;;;6.10;99.90;;;;;;5076051;28;20213;-71
2023/02/06 07:51:47;;;;;;;29.33;17.93;;;6.00;99.90;;;;;;5076390;28;20882;-71
2023/02/06 07:54:12;;;;;;;27.67;17.60;;;6.00;99.90;;;;;;5069582;28;20321;-72
2023/02/06 07:56:38;;;;;;;26.40;16.87;;;6.00;99.90;;;;;;5063963;28;20589;-72
2023/02/06 07:59:04;;;;;;;26.43;16.60;;;6.00;99.90;;;;;;5068883;28;21102;-70
2023/02/06 08:01:30;;;;;;;25.10;17.40;;;6.00;99.90;;;;;;5049955;28;20612;-71
2023/02/06 08:03:56;;;;;;;42.47;27.63;;;6.00;99.90;;;;;;5066947;28;20460;-72
2023/02/06 08:06:23;;;;;;;27.10;17.90;;;6.00;99.90;;;;;;5073623;28;20970;-72
2023/02/06 08:08:49;;;;;;;27.50;17.47;;;6.00;99.90;;;;;;5073729;28;20475;-72
2023/02/06 08:11:19;;;;;;;26.27;17.70;;;6.00;99.90;;;;;;5077690;28;20416;-73
2023/02/06 08:13:46;;;;;;;29.90;19.23;;;6.00;99.90;;;;;;5071565;28;20437;-73
2023/02/06 08:16:17;;;;;;;32.00;19.00;;;6.00;99.90;;;;;;5073738;28;20474;-75
2023/02/06 08:18:43;;;;;;;27.17;17.73;;;6.00;99.90;;;;;;5075786;28;20429;-69
2023/02/06 08:21:14;;;;;;;25.27;18.10;;;6.00;99.90;;;;;;5075743;28;20429;-71
2023/02/06 08:23:40;;;;;;;26.63;19.60;;;6.00;99.90;;;;;;5073324;28;20186;-68
2023/02/06 08:26:09;;;;;;;28.73;17.60;;;6.00;99.90;;;;;;5069697;28;20549;-70
2023/02/06 08:28:36;;;;;;;25.03;18.50;;;6.00;99.90;;;;;;5075134;28;20471;-70
2023/02/06 08:31:10;;;;;;;28.37;18.67;;;6.00;99.90;;;;;;5072440;28;20516;-70
2023/02/06 08:33:36;;;;;;;24.53;17.37;;;6.10;99.90;;;;;;5074821;28;20447;-71
2023/02/06 08:36:03;;;;;;;24.50;18.10;;;6.20;99.90;;;;;;5070592;28;20460;-69
2023/02/06 08:38:28;;;;;;;24.27;18.03;;;6.20;99.90;;;;;;5073443;28;20622;-70
2023/02/06 08:40:54;;;;;;;22.50;16.57;;;6.30;99.90;;;;;;5076161;28;20456;-71
2023/02/06 08:43:20;;;;;;;22.40;17.70;;;6.30;99.90;;;;;;5068796;28;20186;-69
2023/02/06 08:45:51;;;;;;;21.17;15.80;;;6.30;99.90;;;;;;5052422;28;20187;-69
2023/02/06 08:48:17;;;;;;;27.30;17.10;;;6.40;99.90;;;;;;5071426;28;20204;-68
2023/02/06 08:50:43;;;;;;;28.93;17.97;;;6.40;99.90;;;;;;5074098;28;21359;-69
2023/02/06 08:53:09;;;;;;;21.17;15.70;;;6.50;99.90;;;;;;5078640;28;20481;-70
2023/02/06 08:55:35;;;;;;;37.50;20.30;;;6.50;99.90;;;;;;5079257;28;20439;-70
2023/02/06 08:58:01;;;;;;;34.13;20.80;;;6.50;99.90;;;;;;5072282;28;20439;-69
2023/02/06 09:00:26;;;;;;;22.10;16.57;;;6.50;99.90;;;;;;5076471;28;20273;-68
2023/02/06 09:02:53;;;;;;;23.07;14.90;;;6.50;99.90;;;;;;5064673;28;20221;-70
2023/02/06 09:05:20;;;;;;;26.83;17.63;;;6.60;99.90;;;;;;5075272;28;21077;-68
2023/02/06 09:07:46;;;;;;;22.47;16.03;;;6.70;99.90;;;;;;5075959;28;20824;-70
2023/02/06 09:10:12;;;;;;;23.27;17.23;;;6.70;99.90;;;;;;5075457;28;20480;-68
2023/02/06 09:12:38;;;;;;;18.07;15.23;;;6.80;99.90;;;;;;5075224;28;20592;-69
2023/02/06 09:15:04;;;;;;;24.00;14.47;;;6.90;99.90;;;;;;5072069;28;20934;-69
2023/02/06 09:17:30;;;;;;;20.30;15.53;;;6.90;99.90;;;;;;5074211;28;20210;-72
2023/02/06 09:19:59;;;;;;;20.50;15.20;;;6.90;99.90;;;;;;5075763;28;20764;-70
2023/02/06 09:22:25;;;;;;;22.00;15.70;;;6.80;99.90;;;;;;5073708;28;20421;-69
2023/02/06 09:24:51;;;;;;;22.67;15.63;;;6.80;99.90;;;;;;5076094;28;20446;-70
2023/02/06 09:27:16;;;;;;;19.97;15.30;;;6.80;99.90;;;;;;5074933;28;21442;-69
2023/02/06 09:29:42;;;;;;;21.00;14.73;;;6.80;99.90;;;;;;5076142;28;20695;-69
2023/02/06 09:32:07;;;;;;;22.27;14.97;;;6.80;99.90;;;;;;5077274;28;20281;-69
2023/02/06 09:34:33;;;;;;;19.07;14.23;;;6.80;99.90;;;;;;5057337;28;21137;-70
2023/02/06 09:37:03;;;;;;;21.70;14.00;;;6.90;99.90;;;;;;5074604;28;20206;-70
2023/02/06 09:39:30;;;;;;;20.30;15.10;;;6.90;99.90;;;;;;5076388;28;20659;-71
2023/02/06 09:42:08;;;;;;;17.23;13.77;;;7.00;99.90;;;;;;5072914;28;20433;-69
2023/02/06 09:44:47;;;;;;;19.03;13.90;;;7.00;99.90;;;;;;5074804;28;20845;-69
2023/02/06 09:47:22;;;;;;;16.53;12.20;;;7.10;99.90;;;;;;5073016;28;20459;-69
2023/02/06 09:49:58;;;;;;;14.63;11.53;;;7.20;99.90;;;;;;5075846;28;20510;-69
2023/02/06 09:52:43;;;;;;;18.20;13.30;;;7.40;99.90;;;;;;5075184;28;20421;-69
2023/02/06 09:55:27;;;;;;;15.80;12.77;;;7.50;99.90;;;;;;5073013;28;20428;-68
2023/02/06 09:58:29;;;;;;;20.80;12.97;;;7.60;99.90;;;;;;5076990;28;20432;-69
2023/02/06 10:01:06;;;;;;;16.10;10.00;;;7.70;99.90;;;;;;5069065;28;20798;-70
2023/02/06 10:04:04;;;;;;;10.87;9.17;;;7.90;99.90;;;;;;5073533;28;20441;-70
2023/02/06 10:06:39;;;;;;;14.33;9.37;;;8.00;99.90;;;;;;5073876;28;20464;-70
2023/02/06 10:09:09;;;;;;;19.80;11.97;;;8.00;99.90;;;;;;5073769;28;20452;-70
2023/02/06 10:11:40;;;;;;;14.23;9.47;;;8.00;99.90;;;;;;5058462;28;20530;-70
2023/02/06 10:14:41;;;;;;;16.93;11.00;;;8.00;99.90;;;;;;5075251;28;20497;-70
2023/02/06 10:17:27;;;;;;;18.20;13.27;;;8.00;99.90;;;;;;5040928;28;20881;-70
2023/02/06 10:20:04;;;;;;;18.67;13.57;;;8.00;99.90;;;;;;5068847;28;20565;-71
2023/02/06 10:22:53;;;;;;;21.57;13.30;;;7.90;99.90;;;;;;5069708;28;20421;-71
2023/02/06 10:25:39;;;;;;;16.83;12.70;;;7.90;99.90;;;;;;5070498;28;20459;-70
2023/02/06 10:28:20;;;;;;;17.80;12.37;;;7.90;99.90;;;;;;5067974;28;20427;-70
2023/02/06 10:31:06;;;;;;;21.80;13.53;;;7.90;99.90;;;;;;5072242;28;20956;-69
2023/02/06 10:34:02;;;;;;;19.43;15.07;;;7.90;99.90;;;;;;5076412;28;20412;-71
2023/02/06 10:36:36;;;;;;;18.60;11.27;;;7.90;99.90;;;;;;5074329;28;21253;-71
2023/02/06 10:39:40;;;;;;;15.90;12.17;;;7.90;99.90;;;;;;5070950;28;20440;-70
2023/02/06 10:42:22;;;;;;;15.10;12.60;;;8.00;99.90;;;;;;5047307;28;20469;-69
2023/02/06 10:45:09;;;;;;;17.97;12.00;;;7.90;99.90;;;;;;5056632;28;20452;-70
2023/02/06 10:47:54;;;;;;;16.37;11.70;;;7.90;99.90;;;;;;5073163;28;20858;-72
2023/02/06 10:50:29;;;;;;;16.10;11.90;;;7.90;99.90;;;;;;5074117;28;20572;-69
2023/02/06 10:53:10;;;;;;;16.57;11.87;;;7.90;99.90;;;;;;5068071;28;20447;-72
2023/02/06 10:55:49;;;;;;;17.57;11.73;;;7.90;99.90;;;;;;5072191;28;20483;-70
2023/02/06 10:58:44;;;;;;;13.30;10.00;;;7.90;99.90;;;;;;5071087;28;20428;-72
2023/02/06 11:01:12;;;;;;;15.43;11.27;;;7.90;99.90;;;;;;5069983;28;20445;-72
2023/02/06 11:03:49;;;;;;;15.60;11.00;;;7.90;99.90;;;;;;5068038;28;20494;-71
2023/02/06 11:06:19;;;;;;;16.97;11.80;;;7.90;99.90;;;;;;5070916;28;20481;-69
2023/02/06 11:08:46;;;;;;;15.37;11.77;;;8.00;99.90;;;;;;5057247;28;20996;-71
2023/02/06 11:11:21;;;;;;;10.10;8.87;;;8.00;99.90;;;;;;5055955;28;20539;-71
2023/02/06 11:13:52;;;;;;;14.67;10.10;;;8.10;99.90;;;;;;5074495;28;21143;-70
2023/02/06 11:16:24;;;;;;;15.53;9.40;;;8.10;99.90;;;;;;5071969;28;20457;-69
2023/02/06 11:18:54;;;;;;;12.43;9.73;;;8.10;99.90;;;;;;5076234;28;20450;-69
2023/02/06 11:21:41;;;;;;;12.67;9.40;;;8.10;99.90;;;;;;5072762;28;20436;-70
2023/02/06 11:24:10;;;;;;;14.13;8.63;;;8.10;99.90;;;;;;5074368;28;20440;-71
2023/02/06 11:26:41;;;;;;;11.67;8.37;;;8.20;99.90;;;;;;5073155;28;20486;-71
2023/02/06 11:29:24;;;;;;;11.13;8.50;;;8.20;99.90;;;;;;5074960;28;20475;-71
2023/02/06 11:31:58;;;;;;;9.67;7.87;;;8.10;99.90;;;;;;5073819;28;20656;-71
2023/02/06 11:34:26;;;;;;;10.90;8.57;;;8.10;99.90;;;;;;5069708;28;20462;-71
2023/02/06 11:37:05;;;;;;;12.23;7.80;;;8.10;99.90;;;;;;5072857;28;21048;-72
2023/02/06 11:39:33;;;;;;;11.33;7.83;;;8.20;99.90;;;;;;5079849;28;20439;-71
2023/02/06 11:42:12;;;;;;;9.87;7.70;;;8.10;99.90;;;;;;5078315;28;20436;-71
2023/02/06 11:44:40;;;;;;;11.03;7.37;;;8.10;99.90;;;;;;5080491;28;20442;-71
2023/02/06 11:47:28;;;;;;;12.13;7.33;;;8.20;99.90;;;;;;5085072;28;21084;-71
2023/02/06 11:49:55;;;;;;;10.57;6.90;;;8.20;99.90;;;;;;5072694;28;20478;-70
2023/02/06 11:52:32;;;;;;;8.73;6.90;;;8.30;99.90;;;;;;5054530;28;21012;-70
2023/02/06 11:55:01;;;;;;;11.20;8.00;;;8.30;99.90;;;;;;5074938;28;20535;-70
2023/02/06 11:57:30;;;;;;;11.50;8.10;;;8.40;99.90;;;;;;5073395;28;20451;-70
2023/02/06 12:00:17;;;;;;;7.93;5.87;;;8.40;99.90;;;;;;5073947;28;20527;-70
2023/02/06 12:02:53;;;;;;;8.10;6.27;;;8.40;99.90;;;;;;5065503;28;20743;-70
2023/02/06 12:05:21;;;;;;;7.97;6.40;;;8.40;99.90;;;;;;5074066;28;20440;-71
2023/02/06 12:08:13;;;;;;;7.43;5.33;;;8.40;99.90;;;;;;5069347;28;20904;-71
2023/02/06 12:10:47;;;;;;;8.37;5.63;;;8.40;99.90;;;;;;5060170;28;20432;-71
2023/02/06 12:13:20;;;;;;;7.80;5.77;;;8.30;99.90;;;;;;5075262;28;20416;-72
2023/02/06 12:15:50;;;;;;;6.63;5.47;;;8.30;99.90;;;;;;5071833;28;20450;-71
2023/02/06 12:18:20;;;;;;;12.63;5.80;;;8.40;99.90;;;;;;5064033;28;20463;-71
2023/02/06 12:20:54;;;;;;;6.90;5.57;;;8.40;99.90;;;;;;5072843;28;20511;-69
2023/02/06 12:23:27;;;;;;;8.10;6.00;;;8.50;99.90;;;;;;5077222;28;20417;-71
2023/02/06 12:25:59;;;;;;;8.60;6.17;;;8.60;99.90;;;;;;5073044;28;20464;-71
2023/02/06 12:28:48;;;;;;;6.77;5.70;;;8.60;99.90;;;;;;5074212;28;20478;-71
2023/02/06 12:31:37;;;;;;;9.17;5.30;;;8.70;99.90;;;;;;5070264;28;20428;-71
2023/02/06 12:34:30;;;;;;;7.30;5.00;;;8.70;99.90;;;;;;5070692;28;20420;-70
2023/02/06 12:37:13;;;;;;;5.10;4.30;;;8.80;99.90;;;;;;5057470;28;21150;-70
2023/02/06 12:39:41;;;;;;;6.27;4.90;;;8.90;99.90;;;;;;5078772;28;20440;-69
2023/02/06 12:42:28;;;;;;;5.63;4.50;;;8.90;99.90;;;;;;5078197;28;20499;-68
2023/02/06 12:45:06;;;;;;;6.50;3.80;;;8.90;99.90;;;;;;5077394;28;20428;-69
2023/02/06 12:47:44;;;;;;;4.53;3.93;;;8.90;99.90;;;;;;5077974;28;20456;-69
2023/02/06 12:50:23;;;;;;;4.70;3.80;;;9.00;99.90;;;;;;5072016;28;20459;-68
2023/02/06 12:53:02;;;;;;;6.97;4.00;;;9.00;99.90;;;;;;5076669;28;20436;-68
2023/02/06 12:55:53;;;;;;;4.20;3.60;;;9.00;99.90;;;;;;5072068;28;20429;-69